createdAt,value
2019-01-04T00:00:22.484Z,1.00
2019-01-04T00:02:51.237Z,1.00
2019-01-04T00:05:21.593Z,1.00
2019-01-04T00:07:50.924Z,1.00
2019-01-04T00:10:22.212Z,1.00
2019-01-04T00:12:50.993Z,1.00
2019-01-04T00:15:20.141Z,1.00
2019-01-04T00:17:49.185Z,1.00
2019-01-04T00:20:18.232Z,1.00
2019-01-04T00:22:46.993Z,1.00
2019-01-04T00:25:15.757Z,1.00
2019-01-04T00:27:44.519Z,1.00
2019-01-04T00:30:13.384Z,1.00
2019-01-04T00:32:42.167Z,1.00
2019-01-04T00:35:10.957Z,1.00
2019-01-04T00:37:39.796Z,1.00
2019-01-04T00:40:09.578Z,1.00
2019-01-04T00:42:38.611Z,1.00
2019-01-04T00:45:08.808Z,1.00
2019-01-04T00:47:37.683Z,1.00
2019-01-04T00:50:08.216Z,1.00
2019-01-04T00:52:36.978Z,1.00
2019-01-04T00:55:25.366Z,1.00
2019-01-04T00:58:02.998Z,1.00
2019-01-04T01:01:01.789Z,1.00
2019-01-04T01:03:52.646Z,1.00
2019-01-04T01:06:49.425Z,1.00
2019-01-04T01:09:44.976Z,1.00
2019-01-04T01:12:19.681Z,1.00
2019-01-04T01:15:24.612Z,1.00
2019-01-04T01:17:59.155Z,1.00
2019-01-04T01:20:36.409Z,1.00
2019-01-04T01:23:19.921Z,1.00
2019-01-04T01:26:00.689Z,99.90
2019-01-04T01:28:48.568Z,99.90
2019-01-04T01:31:23.137Z,99.90
2019-01-04T01:34:00.746Z,99.90
2019-01-04T01:36:47.536Z,99.90
2019-01-04T01:39:22.321Z,99.90
2019-01-04T01:41:54.189Z,99.90
2019-01-04T01:44:31.820Z,99.90
2019-01-04T01:47:03.636Z,99.90
2019-01-04T01:49:41.133Z,99.90
2019-01-04T01:52:21.529Z,99.90
2019-01-04T01:54:50.313Z,99.90
2019-01-04T01:57:19.137Z,1.00
2019-01-04T01:59:47.955Z,1.00
2019-01-04T02:02:16.821Z,1.00
2019-01-04T02:04:45.597Z,1.00
2019-01-04T02:07:14.425Z,1.00
2019-01-04T02:09:43.173Z,1.00
2019-01-04T02:12:11.926Z,1.00
2019-01-04T02:14:40.688Z,1.00
2019-01-04T02:17:09.457Z,1.00
2019-01-04T02:19:38.252Z,3.20
2019-01-04T02:22:07.035Z,17.80
2019-01-04T02:24:35.821Z,27.50
2019-01-04T02:27:04.583Z,35.10
2019-01-04T02:29:33.338Z,46.50
2019-01-04T02:32:02.153Z,55.40
2019-01-04T02:34:30.937Z,58.30
2019-01-04T02:36:59.783Z,65.40
2019-01-04T02:39:28.633Z,67.70
2019-01-04T02:41:57.369Z,70.40
2019-01-04T02:44:26.127Z,79.50
2019-01-04T02:46:54.980Z,75.30
2019-01-04T02:49:23.789Z,77.40
2019-01-04T02:51:52.578Z,77.00
2019-01-04T02:54:21.384Z,80.40
2019-01-04T02:56:50.179Z,82.70
2019-01-04T02:59:18.923Z,86.00
2019-01-04T03:01:47.654Z,85.80
2019-01-04T03:04:16.399Z,84.40
2019-01-04T03:06:45.204Z,90.80
2019-01-04T03:09:13.985Z,92.60
2019-01-04T03:11:42.847Z,95.10
2019-01-04T03:14:11.592Z,96.00
2019-01-04T03:16:40.656Z,97.30
2019-01-04T03:19:09.400Z,98.60
2019-01-04T03:21:38.197Z,98.80
2019-01-04T03:24:07.082Z,97.90
2019-01-04T03:26:35.882Z,99.30
2019-01-04T03:29:04.742Z,99.90
2019-01-04T03:31:33.508Z,99.90
2019-01-04T03:34:02.362Z,99.90
2019-01-04T03:36:31.206Z,99.90
2019-01-04T03:39:00.084Z,99.90
2019-01-04T03:41:28.920Z,99.90
2019-01-04T03:43:57.756Z,99.90
2019-01-04T03:46:26.596Z,99.90
2019-01-04T03:48:55.414Z,99.90
2019-01-04T03:51:24.435Z,99.90
2019-01-04T03:53:53.181Z,99.90
2019-01-04T03:56:21.964Z,99.90
2019-01-04T03:58:50.846Z,99.90
2019-01-04T04:01:19.637Z,99.90
2019-01-04T04:03:48.420Z,99.90
2019-01-04T04:06:17.232Z,99.90
2019-01-04T04:08:45.992Z,99.90
2019-01-04T04:11:14.770Z,99.90
2019-01-04T04:13:43.657Z,99.90
2019-01-04T04:16:12.485Z,99.90
2019-01-04T04:18:41.252Z,99.90
2019-01-04T04:21:10.146Z,99.90
2019-01-04T04:23:38.931Z,99.90
2019-01-04T04:26:07.714Z,99.90
2019-01-04T04:28:36.462Z,99.90
2019-01-04T04:31:05.250Z,99.90
2019-01-04T04:33:34.193Z,99.90
2019-01-04T04:36:02.963Z,99.90
2019-01-04T04:38:31.777Z,99.90
2019-01-04T04:41:00.528Z,99.90
2019-01-04T04:43:29.309Z,99.90
2019-01-04T04:45:58.085Z,99.90
2019-01-04T04:48:26.862Z,99.90
2019-01-04T04:50:55.612Z,99.90
2019-01-04T04:53:24.391Z,99.90
2019-01-04T04:55:53.269Z,99.90
2019-01-04T04:58:22.028Z,99.90
2019-01-04T05:00:50.799Z,99.90
2019-01-04T05:03:19.589Z,99.90
2019-01-04T05:05:48.656Z,99.90
2019-01-04T05:08:17.454Z,99.90
2019-01-04T05:10:46.209Z,99.90
2019-01-04T05:13:15.007Z,99.90
2019-01-04T05:15:43.798Z,99.90
2019-01-04T05:18:12.590Z,99.90
2019-01-04T05:20:41.488Z,99.90
2019-01-04T05:23:10.234Z,99.90
2019-01-04T05:25:38.982Z,99.90
2019-01-04T05:28:07.781Z,99.90
2019-01-04T05:30:36.827Z,99.90
2019-01-04T05:33:05.621Z,99.90
2019-01-04T05:35:34.482Z,99.90
2019-01-04T05:38:03.368Z,99.90
2019-01-04T05:40:32.135Z,99.90
2019-01-04T05:43:00.942Z,99.90
2019-01-04T05:45:29.779Z,99.90
2019-01-04T05:47:58.564Z,99.90
2019-01-04T05:50:27.425Z,99.90
2019-01-04T05:52:56.318Z,99.90
2019-01-04T05:55:25.134Z,99.90
2019-01-04T05:57:53.985Z,99.90
2019-01-04T06:00:22.754Z,99.90
2019-01-04T06:02:51.534Z,99.90
2019-01-04T06:05:20.393Z,99.90
2019-01-04T06:07:49.280Z,99.90
2019-01-04T06:10:18.128Z,99.90
2019-01-04T06:12:46.901Z,99.90
2019-01-04T06:15:15.676Z,99.90
2019-01-04T06:17:44.430Z,99.90
2019-01-04T06:20:13.185Z,99.90
2019-01-04T06:22:41.977Z,99.90
2019-01-04T06:25:10.830Z,99.90
2019-01-04T06:27:39.639Z,99.90
2019-01-04T06:30:08.644Z,99.90
2019-01-04T06:32:37.460Z,99.90
2019-01-04T06:35:06.282Z,99.90
2019-01-04T06:37:35.041Z,99.90
2019-01-04T06:40:05.896Z,99.90
2019-01-04T06:42:34.687Z,99.90
2019-01-04T06:45:04.553Z,99.90
2019-01-04T06:47:33.347Z,99.90
2019-01-04T06:50:02.198Z,99.90
2019-01-04T06:52:31.021Z,99.90
2019-01-04T06:55:20.920Z,99.90
2019-01-04T06:57:49.782Z,99.90
2019-01-04T07:00:18.528Z,99.90
2019-01-04T07:02:47.279Z,99.90
2019-01-04T07:05:16.121Z,99.90
2019-01-04T07:07:44.906Z,99.90
2019-01-04T07:10:13.718Z,99.90
2019-01-04T07:12:42.525Z,99.90
2019-01-04T07:15:11.301Z,99.90
2019-01-04T07:17:40.126Z,99.90
2019-01-04T07:20:09.124Z,99.90
2019-01-04T07:22:37.872Z,99.90
2019-01-04T07:25:06.655Z,99.90
2019-01-04T07:27:35.434Z,99.90
2019-01-04T07:30:05.647Z,99.90
2019-01-04T07:32:34.742Z,99.90
2019-01-04T07:35:03.569Z,99.90
2019-01-04T07:37:32.951Z,99.90
2019-01-04T07:40:01.714Z,99.90
2019-01-04T07:42:30.565Z,99.90
2019-01-04T07:44:59.544Z,99.90
2019-01-04T07:47:28.348Z,99.90
2019-01-04T07:49:57.470Z,99.90
2019-01-04T07:52:26.612Z,99.90
2019-01-04T07:54:55.328Z,99.90
2019-01-04T07:57:24.141Z,99.90
2019-01-04T07:59:53.222Z,99.90
2019-01-04T08:02:25.203Z,99.90
2019-01-04T08:04:53.951Z,99.90
2019-01-04T08:07:22.770Z,99.90
2019-01-04T08:09:51.517Z,99.90
2019-01-04T08:12:20.331Z,99.90
2019-01-04T08:14:49.316Z,99.90
2019-01-04T08:17:18.181Z,99.90
2019-01-04T08:19:47.250Z,99.90
2019-01-04T08:22:16.026Z,99.90
2019-01-04T08:24:44.888Z,99.90
2019-01-04T08:27:14.085Z,99.90
2019-01-04T08:29:42.949Z,99.90
2019-01-04T08:32:11.682Z,99.90
2019-01-04T08:34:40.695Z,99.90
2019-01-04T08:37:09.541Z,99.90
2019-01-04T08:39:38.385Z,99.90
2019-01-04T08:42:07.126Z,99.90
2019-01-04T08:44:35.910Z,99.90
2019-01-04T08:47:04.710Z,99.90
2019-01-04T08:49:33.504Z,99.90
2019-01-04T08:52:02.337Z,99.90
2019-01-04T08:54:31.199Z,99.90
2019-01-04T08:57:00.003Z,99.90
2019-01-04T08:59:28.970Z,99.90
2019-01-04T09:01:57.707Z,99.90
2019-01-04T09:04:26.529Z,99.90
2019-01-04T09:06:55.381Z,99.90
2019-01-04T09:09:24.180Z,99.90
2019-01-04T09:11:53.280Z,99.90
2019-01-04T09:14:22.046Z,99.90
2019-01-04T09:16:50.808Z,99.90
2019-01-04T09:19:19.588Z,99.90
2019-01-04T09:21:48.609Z,99.90
2019-01-04T09:24:17.437Z,99.90
2019-01-04T09:26:47.531Z,99.90
2019-01-04T09:29:16.632Z,99.90
2019-01-04T09:31:45.480Z,99.90
2019-01-04T09:34:14.310Z,99.90
2019-01-04T09:36:43.112Z,99.90
2019-01-04T09:39:12.204Z,99.90
2019-01-04T09:41:41.176Z,99.90
2019-01-04T09:44:10.014Z,99.90
2019-01-04T09:46:39.084Z,99.90
2019-01-04T09:49:07.955Z,99.90
2019-01-04T09:51:36.821Z,99.90
2019-01-04T09:54:05.918Z,99.90
2019-01-04T09:56:34.915Z,99.90
2019-01-04T09:59:03.656Z,99.90
2019-01-04T10:01:32.737Z,99.90
2019-01-04T10:04:01.564Z,99.90
2019-01-04T10:06:30.670Z,99.90
2019-01-04T10:08:59.628Z,99.90
2019-01-04T10:11:28.626Z,99.90
2019-01-04T10:13:57.399Z,99.90
2019-01-04T10:16:26.138Z,99.90
2019-01-04T10:18:54.892Z,99.90
2019-01-04T10:21:23.626Z,99.90
2019-01-04T10:23:52.379Z,99.90
2019-01-04T10:26:21.435Z,99.90
2019-01-04T10:28:50.627Z,99.90
2019-01-04T10:31:19.960Z,99.90
2019-01-04T10:33:48.738Z,99.90
2019-01-04T10:36:18.087Z,99.90
2019-01-04T10:38:47.673Z,99.90
2019-01-04T10:41:17.199Z,99.90
2019-01-04T10:43:47.372Z,99.90
2019-01-04T10:46:16.225Z,99.90
2019-01-04T10:48:45.052Z,99.90
2019-01-04T10:51:13.977Z,99.90
2019-01-04T10:53:42.818Z,99.90
2019-01-04T10:56:11.987Z,99.90
2019-01-04T10:58:40.821Z,99.90
2019-01-04T11:01:09.585Z,99.90
2019-01-04T11:03:38.328Z,99.90
2019-01-04T11:06:07.074Z,99.90
2019-01-04T11:08:35.980Z,99.90
2019-01-04T11:11:04.761Z,99.90
2019-01-04T11:13:33.529Z,99.90
2019-01-04T11:16:02.376Z,99.90
2019-01-04T11:18:31.161Z,99.90
2019-01-04T11:21:00.212Z,99.90
2019-01-04T11:24:00.485Z,99.90
2019-01-04T11:26:35.146Z,99.90
2019-01-04T11:29:21.663Z,99.90
2019-01-04T11:31:59.454Z,99.90
2019-01-04T11:34:34.549Z,99.90
2019-01-04T11:37:06.414Z,99.90
2019-01-04T11:39:40.889Z,99.90
2019-01-04T11:42:15.574Z,99.90
2019-01-04T11:45:08.018Z,99.90
2019-01-04T11:47:40.198Z,99.90
2019-01-04T11:50:30.075Z,99.90
2019-01-04T11:52:59.898Z,99.90
2019-01-04T11:55:28.635Z,99.90
2019-01-04T11:57:57.455Z,99.90
2019-01-04T12:00:26.366Z,99.90
2019-01-04T12:02:55.416Z,99.90
2019-01-04T12:05:24.171Z,99.90
2019-01-04T12:07:52.943Z,99.90
2019-01-04T12:10:21.723Z,99.90
2019-01-04T12:12:50.577Z,99.90
2019-01-04T12:15:19.746Z,99.90
2019-01-04T12:17:48.485Z,99.90
2019-01-04T12:20:17.280Z,99.90
2019-01-04T12:22:46.047Z,99.90
2019-01-04T12:25:14.981Z,99.90
2019-01-04T12:27:43.903Z,99.90
2019-01-04T12:30:12.892Z,99.90
2019-01-04T12:32:41.977Z,99.90
2019-01-04T12:35:10.930Z,99.90
2019-01-04T12:37:39.994Z,99.90
2019-01-04T12:40:08.861Z,99.90
2019-01-04T12:42:37.865Z,99.90
2019-01-04T12:45:08.398Z,99.90
2019-01-04T12:47:37.879Z,99.90
2019-01-04T12:50:08.212Z,99.90
2019-01-04T12:52:37.217Z,99.90
2019-01-04T12:55:06.351Z,99.90
2019-01-04T12:57:35.617Z,99.90
2019-01-04T13:00:07.201Z,99.90
2019-01-04T13:02:36.030Z,99.90
2019-01-04T13:05:05.112Z,99.90
2019-01-04T13:07:33.873Z,99.90
2019-01-04T13:10:02.717Z,99.90
2019-01-04T13:12:31.485Z,99.90
2019-01-04T13:15:00.340Z,99.90
2019-01-04T13:17:29.156Z,99.90
2019-01-04T13:19:57.987Z,99.90
2019-01-04T13:22:26.753Z,99.90
2019-01-04T13:24:55.495Z,99.90
2019-01-04T13:27:24.264Z,99.90
2019-01-04T13:29:53.074Z,99.90
2019-01-04T13:32:21.852Z,99.90
2019-01-04T13:34:50.686Z,99.90
2019-01-04T13:37:19.484Z,99.90
2019-01-04T13:39:48.590Z,99.90
2019-01-04T13:42:17.569Z,99.90
2019-01-04T13:44:46.320Z,99.90
2019-01-04T13:47:15.097Z,99.90
2019-01-04T13:49:44.105Z,99.90
2019-01-04T13:52:13.723Z,99.90
2019-01-04T13:54:42.504Z,99.90
2019-01-04T13:57:11.327Z,99.90
2019-01-04T13:59:40.144Z,99.90
2019-01-04T14:02:09.414Z,99.90
2019-01-04T14:04:38.238Z,99.90
2019-01-04T14:07:07.021Z,99.90
2019-01-04T14:09:36.174Z,99.90
2019-01-04T14:12:04.988Z,99.90
2019-01-04T14:14:36.105Z,99.90
2019-01-04T14:17:04.871Z,99.90
2019-01-04T14:19:33.770Z,99.90
2019-01-04T14:22:02.689Z,99.90
2019-01-04T14:24:31.522Z,99.90
2019-01-04T14:27:00.370Z,99.90
2019-01-04T14:29:29.119Z,99.90
2019-01-04T14:31:58.152Z,99.90
2019-01-04T14:34:27.734Z,99.90
2019-01-04T14:36:56.689Z,99.90
2019-01-04T14:39:25.605Z,99.90
2019-01-04T14:41:54.787Z,99.90
2019-01-04T14:44:24.319Z,99.90
2019-01-04T14:46:53.439Z,99.90
2019-01-04T14:49:22.546Z,99.90
2019-01-04T14:51:51.351Z,99.90
2019-01-04T14:54:20.209Z,99.90
2019-01-04T14:56:49.303Z,99.90
2019-01-04T14:59:18.104Z,99.90
2019-01-04T15:01:46.894Z,99.90
2019-01-04T15:04:15.696Z,99.90
2019-01-04T15:06:44.440Z,99.90
2019-01-04T15:09:13.215Z,99.90
2019-01-04T15:11:42.280Z,99.90
2019-01-04T15:14:11.048Z,99.90
2019-01-04T15:16:39.951Z,99.90
2019-01-04T15:19:08.695Z,99.90
2019-01-04T15:21:37.457Z,99.90
2019-01-04T15:24:06.248Z,99.90
2019-01-04T15:26:35.087Z,99.90
2019-01-04T15:29:03.878Z,99.90
2019-01-04T15:31:32.687Z,99.90
2019-01-04T15:34:01.571Z,99.90
2019-01-04T15:36:30.341Z,99.90
2019-01-04T15:38:59.213Z,99.90
2019-01-04T15:41:28.011Z,99.90
2019-01-04T15:43:56.772Z,99.90
2019-01-04T15:46:25.554Z,99.90
2019-01-04T15:48:54.299Z,99.90
2019-01-04T15:51:23.098Z,99.90
2019-01-04T15:53:51.860Z,99.90
2019-01-04T15:56:20.718Z,99.90
2019-01-04T15:58:49.558Z,99.90
2019-01-04T16:01:18.333Z,99.90
2019-01-04T16:03:47.115Z,99.90
2019-01-04T16:06:15.885Z,99.90
2019-01-04T16:08:44.610Z,99.90
2019-01-04T16:11:13.439Z,99.90
2019-01-04T16:13:42.309Z,99.90
2019-01-04T16:16:11.313Z,99.90
2019-01-04T16:18:40.152Z,99.90
2019-01-04T16:21:08.996Z,99.90
2019-01-04T16:23:37.745Z,99.90
2019-01-04T16:26:06.594Z,99.90
2019-01-04T16:28:35.659Z,99.90
2019-01-04T16:31:04.576Z,99.90
2019-01-04T16:33:33.431Z,99.90
2019-01-04T16:36:02.192Z,99.90
2019-01-04T16:38:31.036Z,99.90
2019-01-04T16:41:00.183Z,99.90
2019-01-04T16:43:29.248Z,99.90
2019-01-04T16:45:58.057Z,99.90
2019-01-04T16:48:26.792Z,99.90
2019-01-04T16:50:55.620Z,99.90
2019-01-04T16:53:24.412Z,99.90
2019-01-04T16:55:53.200Z,99.90
2019-01-04T16:58:21.966Z,99.90
2019-01-04T17:00:50.756Z,99.90
2019-01-04T17:03:19.554Z,99.90
2019-01-04T17:05:48.460Z,99.90
2019-01-04T17:08:17.323Z,99.90
2019-01-04T17:10:46.111Z,99.90
2019-01-04T17:13:14.939Z,99.90
2019-01-04T17:15:43.781Z,99.90
2019-01-04T17:18:12.630Z,99.90
2019-01-04T17:20:41.490Z,99.90
2019-01-04T17:23:10.253Z,99.90
2019-01-04T17:25:39.033Z,99.90
2019-01-04T17:28:07.801Z,99.90
2019-01-04T17:30:36.573Z,99.90
2019-01-04T17:33:05.319Z,99.90
2019-01-04T17:35:34.100Z,99.90
2019-01-04T17:38:02.906Z,99.90
2019-01-04T17:40:31.677Z,99.90
2019-01-04T17:43:00.437Z,99.90
2019-01-04T17:45:29.188Z,99.90
2019-01-04T17:47:57.944Z,99.90
2019-01-04T17:50:26.777Z,99.90
2019-01-04T17:52:55.594Z,99.90
2019-01-04T17:55:24.439Z,99.90
2019-01-04T17:57:53.467Z,99.90
2019-01-04T18:00:22.221Z,99.90
2019-01-04T18:02:50.975Z,99.90
2019-01-04T18:05:19.769Z,99.90
2019-01-04T18:07:48.797Z,99.90
2019-01-04T18:10:17.794Z,99.90
2019-01-04T18:12:46.870Z,99.90
2019-01-04T18:15:15.645Z,99.90
2019-01-04T18:17:44.424Z,99.90
2019-01-04T18:20:13.965Z,99.90
2019-01-04T18:22:42.830Z,99.90
2019-01-04T18:25:11.618Z,99.90
2019-01-04T18:27:40.409Z,99.90
2019-01-04T18:30:10.311Z,99.90
2019-01-04T18:32:39.115Z,99.90
2019-01-04T18:35:07.883Z,99.90
2019-01-04T18:37:36.745Z,99.90
2019-01-04T18:40:08.184Z,99.90
2019-01-04T18:42:37.015Z,99.90
2019-01-04T18:45:06.337Z,99.90
2019-01-04T18:47:39.338Z,99.90
2019-01-04T18:50:08.280Z,99.90
2019-01-04T18:52:37.034Z,99.90
2019-01-04T18:55:05.876Z,99.90
2019-01-04T18:57:34.729Z,99.90
2019-01-04T19:00:03.769Z,99.90
2019-01-04T19:02:32.617Z,99.90
2019-01-04T19:05:01.456Z,99.90
2019-01-04T19:07:30.240Z,99.90
2019-01-04T19:09:59.078Z,99.90
2019-01-04T19:12:27.907Z,99.90
2019-01-04T19:14:56.757Z,99.90
2019-01-04T19:17:25.583Z,99.90
2019-01-04T19:19:54.376Z,99.90
2019-01-04T19:22:23.139Z,99.90
2019-01-04T19:24:51.909Z,99.90
2019-01-04T19:27:20.976Z,99.90
2019-01-04T19:29:49.738Z,99.90
2019-01-04T19:32:18.597Z,99.90
2019-01-04T19:34:47.384Z,99.90
2019-01-04T19:37:16.244Z,99.90
2019-01-04T19:39:45.001Z,99.90
2019-01-04T19:42:13.822Z,99.90
2019-01-04T19:44:42.610Z,99.90
2019-01-04T19:47:11.358Z,99.90
2019-01-04T19:49:40.129Z,99.90
2019-01-04T19:52:08.916Z,99.90
2019-01-04T19:54:37.720Z,99.90
2019-01-04T19:57:06.761Z,99.90
2019-01-04T19:59:35.589Z,99.90
2019-01-04T20:02:04.395Z,99.90
2019-01-04T20:04:33.222Z,99.90
2019-01-04T20:07:41.271Z,99.90
2019-01-04T20:10:52.144Z,99.90
2019-01-04T20:13:58.255Z,99.90
2019-01-04T20:16:47.664Z,99.90
2019-01-04T20:19:29.848Z,99.90
2019-01-04T20:22:12.159Z,99.90
2019-01-04T20:24:58.604Z,99.90
2019-01-04T20:27:32.015Z,99.90
2019-01-04T20:30:18.462Z,99.90
2019-01-04T20:32:48.960Z,99.90
2019-01-04T20:35:22.158Z,99.90
2019-01-04T20:37:52.652Z,99.90
2019-01-04T20:40:25.588Z,99.90
2019-01-04T20:43:01.744Z,99.90
2019-01-04T20:45:34.952Z,99.90
2019-01-04T20:48:11.441Z,99.90
2019-01-04T20:50:58.083Z,99.90
2019-01-04T20:53:31.443Z,99.90
2019-01-04T20:56:18.304Z,99.90
2019-01-04T20:59:04.984Z,99.90
2019-01-04T21:01:53.461Z,99.90
2019-01-04T21:04:29.511Z,99.90
2019-01-04T21:07:08.972Z,99.90
2019-01-04T21:09:54.585Z,99.90
2019-01-04T21:12:40.982Z,99.90
2019-01-04T21:15:29.415Z,99.90
2019-01-04T21:17:59.834Z,99.90
2019-01-04T21:20:48.406Z,99.90
2019-01-04T21:23:18.905Z,99.90
2019-01-04T21:25:49.676Z,99.90
2019-01-04T21:28:34.903Z,99.90
2019-01-04T21:31:19.999Z,99.90
2019-01-04T21:33:50.747Z,99.90
2019-01-04T21:36:26.802Z,99.90
2019-01-04T21:39:03.148Z,99.90
2019-01-04T21:41:42.311Z,99.90
2019-01-04T21:44:27.539Z,99.90
2019-01-04T21:46:57.930Z,99.90
2019-01-04T21:49:28.608Z,99.90
2019-01-04T21:51:59.003Z,99.90
2019-01-04T21:54:32.447Z,99.90
2019-01-04T21:57:02.885Z,99.90
2019-01-04T21:59:33.279Z,99.90
2019-01-04T22:02:15.421Z,99.90
2019-01-04T22:05:03.696Z,99.90
2019-01-04T22:07:49.044Z,99.90
2019-01-04T22:10:31.553Z,99.90
2019-01-04T22:13:07.707Z,99.90
2019-01-04T22:15:50.192Z,99.90
2019-01-04T22:18:38.229Z,99.90
2019-01-04T22:21:24.664Z,99.90
2019-01-04T22:23:58.130Z,99.90
2019-01-04T22:26:44.709Z,99.90
2019-01-04T22:29:27.161Z,99.90
2019-01-04T22:32:03.317Z,99.90
2019-01-04T22:34:39.525Z,99.90
2019-01-04T22:37:18.801Z,99.90
2019-01-04T22:39:49.282Z,99.90
2019-01-04T22:42:19.697Z,99.90
2019-01-04T22:44:55.880Z,99.90
2019-01-04T22:47:42.320Z,99.90
2019-01-04T22:50:29.094Z,99.90
2019-01-04T22:53:08.653Z,99.90
2019-01-04T22:55:51.060Z,99.90
2019-01-04T22:58:21.549Z,99.90
2019-01-04T23:00:58.823Z,99.90
2019-01-04T23:03:29.265Z,99.90
2019-01-04T23:06:08.706Z,99.90
2019-01-04T23:08:57.252Z,99.90
2019-01-04T23:11:43.640Z,99.90
2019-01-04T23:14:30.128Z,99.90
2019-01-04T23:17:16.834Z,99.90
2019-01-04T23:19:59.317Z,99.90
2019-01-04T23:22:51.489Z,99.90
2019-01-04T23:25:24.668Z,99.90
2019-01-04T23:28:04.110Z,99.90
2019-01-04T23:30:37.295Z,99.90
2019-01-04T23:33:07.729Z,99.90
2019-01-04T23:35:54.247Z,99.90
2019-01-04T23:38:27.584Z,99.90
2019-01-04T23:41:13.124Z,99.90
2019-01-04T23:43:59.310Z,99.90
2019-01-04T23:46:32.464Z,99.90
2019-01-04T23:49:05.801Z,99.90
2019-01-04T23:51:48.299Z,99.90
2019-01-04T23:54:21.637Z,99.90
2019-01-04T23:57:04.101Z,99.90
2019-01-04T23:59:40.380Z,99.90
